createdAt,value
2023-05-11T00:00:15.446Z,99.90
2023-05-11T00:02:43.356Z,99.90
2023-05-11T00:05:10.835Z,99.90
2023-05-11T00:07:38.125Z,99.90
2023-05-11T00:10:06.401Z,99.90
2023-05-11T00:12:34.340Z,99.90
2023-05-11T00:15:01.734Z,99.90
2023-05-11T00:17:29.153Z,99.90
2023-05-11T00:19:56.515Z,99.90
2023-05-11T00:22:23.891Z,99.90
2023-05-11T00:24:51.319Z,99.90
2023-05-11T00:27:18.722Z,99.90
2023-05-11T00:29:46.146Z,99.90
2023-05-11T00:32:13.794Z,99.90
2023-05-11T00:34:41.125Z,99.90
2023-05-11T00:37:08.915Z,99.90
2023-05-11T00:39:40.332Z,99.90
2023-05-11T00:42:07.765Z,99.90
2023-05-11T00:44:35.341Z,99.90
2023-05-11T00:47:03.054Z,99.90
2023-05-11T00:49:31.263Z,99.90
2023-05-11T00:52:02.949Z,99.90
2023-05-11T00:54:31.665Z,99.90
2023-05-11T00:56:59.595Z,99.90
2023-05-11T00:59:28.008Z,99.90
2023-05-11T01:01:55.730Z,99.90
2023-05-11T01:04:23.284Z,99.90
2023-05-11T01:07:08.845Z,99.90
2023-05-11T01:09:59.633Z,99.90
2023-05-11T01:12:57.938Z,99.90
2023-05-11T01:15:46.372Z,99.90
2023-05-11T01:18:34.175Z,99.90
2023-05-11T01:21:09.870Z,99.90
2023-05-11T01:23:56.404Z,99.90
2023-05-11T01:27:04.167Z,99.90
2023-05-11T01:30:06.556Z,99.90
2023-05-11T01:32:36.953Z,99.90
2023-05-11T01:35:12.212Z,99.90
2023-05-11T01:37:45.638Z,99.90
2023-05-11T01:40:17.230Z,99.90
2023-05-11T01:43:00.291Z,99.90
2023-05-11T01:45:31.671Z,99.90
2023-05-11T01:48:02.862Z,99.90
2023-05-11T01:50:33.304Z,99.90
2023-05-11T01:53:04.248Z,99.90
2023-05-11T01:55:34.036Z,99.90
2023-05-11T01:58:03.998Z,99.90
2023-05-11T02:00:33.452Z,99.90
2023-05-11T02:03:02.557Z,99.90
2023-05-11T02:05:31.058Z,99.90
2023-05-11T02:08:00.406Z,99.90
2023-05-11T02:10:28.946Z,99.90
2023-05-11T02:12:57.747Z,99.90
2023-05-11T02:15:27.906Z,99.90
2023-05-11T02:17:56.328Z,99.90
2023-05-11T02:20:24.992Z,99.90
2023-05-11T02:22:54.287Z,99.90
2023-05-11T02:25:22.523Z,99.90
2023-05-11T02:27:50.530Z,99.90
2023-05-11T02:30:18.091Z,99.90
2023-05-11T02:32:56.536Z,99.90
2023-05-11T02:35:28.320Z,99.90
2023-05-11T02:37:59.012Z,99.90
2023-05-11T02:40:34.549Z,99.90
2023-05-11T02:43:13.863Z,99.90
2023-05-11T02:45:50.274Z,99.90
2023-05-11T02:48:25.022Z,99.90
2023-05-11T02:50:55.626Z,99.90
2023-05-11T02:53:32.143Z,99.90
2023-05-11T02:56:01.358Z,99.90
2023-05-11T02:58:30.774Z,99.90
2023-05-11T03:01:11.145Z,99.90
2023-05-11T03:03:38.997Z,99.90
2023-05-11T03:06:06.527Z,99.90
2023-05-11T03:08:34.304Z,99.90
2023-05-11T03:11:04.215Z,99.90
2023-05-11T03:13:32.148Z,99.90
2023-05-11T03:16:02.486Z,99.90
2023-05-11T03:18:33.207Z,99.90
2023-05-11T03:21:01.964Z,99.90
2023-05-11T03:23:30.714Z,99.90
2023-05-11T03:25:59.774Z,99.90
2023-05-11T03:28:31.296Z,99.90
2023-05-11T03:31:06.571Z,99.90
2023-05-11T03:33:34.532Z,99.90
2023-05-11T03:36:06.921Z,99.90
2023-05-11T03:38:36.737Z,99.90
2023-05-11T03:41:06.169Z,99.90
2023-05-11T03:43:40.706Z,99.90
2023-05-11T03:46:09.752Z,99.90
2023-05-11T03:48:40.599Z,99.90
2023-05-11T03:51:10.103Z,99.90
2023-05-11T03:53:38.590Z,99.90
2023-05-11T03:56:09.632Z,99.90
2023-05-11T03:58:40.823Z,99.90
2023-05-11T04:01:11.587Z,99.90
2023-05-11T04:03:53.194Z,99.90
2023-05-11T04:06:21.844Z,99.90
2023-05-11T04:08:57.369Z,99.90
2023-05-11T04:11:24.796Z,99.90
2023-05-11T04:13:52.245Z,99.90
2023-05-11T04:16:19.639Z,99.90
2023-05-11T04:18:47.047Z,99.90
2023-05-11T04:21:15.376Z,99.90
2023-05-11T04:23:42.707Z,99.90
2023-05-11T04:26:10.048Z,99.90
2023-05-11T04:28:38.120Z,99.90
2023-05-11T04:31:05.576Z,99.90
2023-05-11T04:33:32.952Z,99.90
2023-05-11T04:36:01.399Z,99.90
2023-05-11T04:38:28.843Z,99.90
2023-05-11T04:40:56.376Z,99.90
2023-05-11T04:43:23.803Z,99.90
2023-05-11T04:45:51.600Z,99.90
2023-05-11T04:48:29.679Z,99.90
2023-05-11T04:50:57.383Z,99.90
2023-05-11T04:53:29.222Z,99.90
2023-05-11T04:55:57.545Z,99.90
2023-05-11T04:58:25.441Z,99.90
2023-05-11T05:00:52.877Z,99.90
2023-05-11T05:03:20.337Z,99.90
2023-05-11T05:05:47.776Z,99.90
2023-05-11T05:08:15.451Z,99.90
2023-05-11T05:10:42.744Z,99.90
2023-05-11T05:13:10.095Z,99.90
2023-05-11T05:15:37.462Z,99.90
2023-05-11T05:18:04.948Z,99.90
2023-05-11T05:20:32.605Z,99.90
2023-05-11T05:23:00.219Z,99.90
2023-05-11T05:25:27.964Z,99.90
2023-05-11T05:27:57.415Z,99.90
2023-05-11T05:30:25.050Z,99.90
2023-05-11T05:32:54.936Z,99.90
2023-05-11T05:35:22.726Z,99.90
2023-05-11T05:37:50.388Z,99.90
2023-05-11T05:40:18.784Z,99.90
2023-05-11T05:42:52.969Z,99.90
2023-05-11T05:45:22.538Z,99.90
2023-05-11T05:47:52.045Z,99.90
2023-05-11T05:50:23.782Z,99.90
2023-05-11T05:52:51.732Z,99.90
2023-05-11T05:55:20.327Z,99.90
2023-05-11T05:57:50.141Z,99.90
2023-05-11T06:00:18.123Z,99.90
2023-05-11T06:02:52.593Z,99.90
2023-05-11T06:05:25.906Z,99.90
2023-05-11T06:08:09.155Z,99.90
2023-05-11T06:10:40.138Z,99.90
2023-05-11T06:13:09.918Z,99.90
2023-05-11T06:15:41.025Z,99.90
2023-05-11T06:18:17.562Z,99.90
2023-05-11T06:20:45.385Z,99.90
2023-05-11T06:23:14.216Z,99.90
2023-05-11T06:25:43.393Z,99.90
2023-05-11T06:28:12.104Z,99.90
2023-05-11T06:30:39.601Z,99.90
2023-05-11T06:33:10.507Z,99.90
2023-05-11T06:35:39.661Z,99.90
2023-05-11T06:38:15.116Z,99.90
2023-05-11T06:40:42.586Z,99.90
2023-05-11T06:43:10.056Z,99.90
2023-05-11T06:45:54.933Z,99.90
2023-05-11T06:48:23.584Z,99.90
2023-05-11T06:50:52.214Z,99.90
2023-05-11T06:53:19.710Z,99.90
2023-05-11T06:55:47.246Z,99.90
2023-05-11T06:58:14.885Z,99.90
2023-05-11T07:00:42.732Z,99.90
2023-05-11T07:03:10.271Z,99.90
2023-05-11T07:05:39.095Z,99.90
2023-05-11T07:08:06.690Z,99.90
2023-05-11T07:10:35.153Z,99.90
2023-05-11T07:13:02.561Z,99.90
2023-05-11T07:15:29.956Z,99.90
2023-05-11T07:17:57.310Z,99.90
2023-05-11T07:20:24.697Z,99.90
2023-05-11T07:22:52.042Z,99.90
2023-05-11T07:25:19.693Z,99.90
2023-05-11T07:27:47.265Z,99.90
2023-05-11T07:30:15.736Z,99.90
2023-05-11T07:32:44.175Z,99.90
2023-05-11T07:35:11.571Z,99.90
2023-05-11T07:37:38.962Z,99.90
2023-05-11T07:40:07.253Z,99.90
2023-05-11T07:42:34.693Z,99.30
2023-05-11T07:45:02.047Z,99.70
2023-05-11T07:47:29.472Z,99.20
2023-05-11T07:49:56.981Z,98.50
2023-05-11T07:52:24.465Z,99.00
2023-05-11T07:54:51.848Z,99.20
2023-05-11T07:57:19.987Z,99.40
2023-05-11T07:59:47.557Z,99.20
2023-05-11T08:02:15.103Z,98.50
2023-05-11T08:04:43.203Z,97.90
2023-05-11T08:07:10.749Z,97.20
2023-05-11T08:09:38.158Z,97.30
2023-05-11T08:12:05.670Z,97.40
2023-05-11T08:14:33.136Z,97.80
2023-05-11T08:17:02.264Z,98.60
2023-05-11T08:19:31.010Z,98.60
2023-05-11T08:21:58.370Z,98.00
2023-05-11T08:24:25.889Z,97.50
2023-05-11T08:26:54.051Z,97.20
2023-05-11T08:29:21.414Z,97.30
2023-05-11T08:31:50.009Z,97.60
2023-05-11T08:34:20.178Z,97.60
2023-05-11T08:36:47.964Z,97.20
2023-05-11T08:39:24.682Z,97.30
2023-05-11T08:41:59.695Z,97.40
2023-05-11T08:44:28.665Z,97.30
2023-05-11T08:47:17.398Z,96.80
2023-05-11T08:49:48.386Z,96.70
2023-05-11T08:52:18.174Z,97.00
2023-05-11T08:54:46.449Z,96.80
2023-05-11T08:57:15.979Z,96.30
2023-05-11T08:59:46.980Z,96.70
2023-05-11T09:02:19.387Z,96.90
2023-05-11T09:04:48.969Z,96.60
2023-05-11T09:07:17.578Z,96.40
2023-05-11T09:09:46.875Z,96.10
2023-05-11T09:12:15.464Z,96.00
2023-05-11T09:14:43.704Z,95.70
2023-05-11T09:17:11.476Z,96.10
2023-05-11T09:20:00.952Z,96.50
2023-05-11T09:22:30.844Z,96.00
2023-05-11T09:25:01.780Z,96.70
2023-05-11T09:27:29.295Z,97.10
2023-05-11T09:29:57.260Z,97.60
2023-05-11T09:32:24.734Z,97.30
2023-05-11T09:34:52.134Z,97.40
2023-05-11T09:37:20.803Z,96.90
2023-05-11T09:40:18.610Z,96.30
2023-05-11T09:42:42.814Z,95.10
2023-05-11T09:45:10.637Z,95.40
2023-05-11T09:47:42.913Z,95.60
2023-05-11T09:50:18.146Z,94.70
2023-05-11T09:52:51.992Z,94.60
2023-05-11T09:55:19.622Z,94.40
2023-05-11T09:57:55.399Z,95.40
2023-05-11T10:00:25.157Z,94.80
2023-05-11T10:03:10.840Z,94.20
2023-05-11T10:05:38.161Z,93.90
2023-05-11T10:08:06.350Z,93.30
2023-05-11T10:10:34.935Z,93.90
2023-05-11T10:13:04.152Z,93.30
2023-05-11T10:15:35.522Z,92.70
2023-05-11T10:18:03.874Z,92.80
2023-05-11T10:20:32.979Z,92.10
2023-05-11T10:23:00.538Z,92.50
2023-05-11T10:25:28.574Z,92.30
2023-05-11T10:27:57.658Z,91.80
2023-05-11T10:30:25.372Z,92.00
2023-05-11T10:32:55.338Z,92.00
2023-05-11T10:35:23.594Z,92.30
2023-05-11T10:37:51.316Z,92.20
2023-05-11T10:40:19.031Z,92.50
2023-05-11T10:43:08.557Z,92.40
2023-05-11T10:45:52.613Z,91.70
2023-05-11T10:49:05.445Z,91.70
2023-05-11T10:51:50.616Z,91.40
2023-05-11T10:54:38.867Z,91.40
2023-05-11T10:57:34.884Z,91.80
2023-05-11T11:00:30.946Z,91.50
2023-05-11T11:03:09.408Z,91.60
2023-05-11T11:05:39.971Z,91.50
2023-05-11T11:08:08.938Z,91.50
2023-05-11T11:10:51.440Z,91.30
2023-05-11T11:13:20.176Z,91.00
2023-05-11T11:15:54.025Z,91.50
2023-05-11T11:18:22.815Z,91.20
2023-05-11T11:20:54.853Z,91.30
2023-05-11T11:23:41.752Z,91.20
2023-05-11T11:26:16.329Z,91.30
2023-05-11T11:29:00.700Z,91.30
2023-05-11T11:31:34.036Z,91.40
2023-05-11T11:34:29.583Z,91.60
2023-05-11T11:36:58.797Z,91.60
2023-05-11T11:39:26.896Z,91.80
2023-05-11T11:42:05.595Z,91.70
2023-05-11T11:44:34.436Z,91.50
2023-05-11T11:47:22.253Z,92.00
2023-05-11T11:49:51.739Z,91.90
2023-05-11T11:52:28.696Z,92.00
2023-05-11T11:55:01.428Z,92.20
2023-05-11T11:57:34.849Z,92.20
2023-05-11T12:00:12.692Z,92.60
2023-05-11T12:02:44.849Z,92.60
2023-05-11T12:05:22.312Z,92.60
2023-05-11T12:07:52.147Z,92.60
2023-05-11T12:10:21.335Z,92.70
2023-05-11T12:12:51.852Z,92.90
2023-05-11T12:15:32.388Z,93.00
2023-05-11T12:18:02.741Z,93.20
2023-05-11T12:20:30.330Z,93.10
2023-05-11T12:22:57.822Z,93.30
2023-05-11T12:25:25.178Z,93.60
2023-05-11T12:28:01.862Z,93.60
2023-05-11T12:30:32.586Z,93.90
2023-05-11T12:33:01.420Z,93.90
2023-05-11T12:35:35.487Z,94.00
2023-05-11T12:38:02.923Z,94.00
2023-05-11T12:40:31.293Z,94.30
2023-05-11T12:43:00.154Z,94.40
2023-05-11T12:45:29.143Z,94.50
2023-05-11T12:47:58.415Z,94.60
2023-05-11T12:50:26.028Z,95.10
2023-05-11T12:52:53.380Z,95.10
2023-05-11T12:55:28.705Z,95.10
2023-05-11T12:58:11.952Z,95.20
2023-05-11T13:00:56.572Z,95.00
2023-05-11T13:03:25.195Z,95.10
2023-05-11T13:05:54.257Z,95.00
2023-05-11T13:08:21.729Z,95.00
2023-05-11T13:10:49.095Z,95.10
2023-05-11T13:13:29.438Z,94.90
2023-05-11T13:15:56.953Z,94.80
2023-05-11T13:18:24.491Z,94.80
2023-05-11T13:21:07.845Z,94.80
2023-05-11T13:23:36.835Z,94.80
2023-05-11T13:26:04.272Z,94.70
2023-05-11T13:28:34.177Z,94.80
2023-05-11T13:31:01.953Z,94.90
2023-05-11T13:33:29.385Z,94.80
2023-05-11T13:35:56.830Z,95.00
2023-05-11T13:38:24.202Z,94.60
2023-05-11T13:40:51.661Z,94.30
2023-05-11T13:43:18.987Z,94.60
2023-05-11T13:45:46.312Z,94.70
2023-05-11T13:48:13.727Z,94.80
2023-05-11T13:50:41.152Z,94.70
2023-05-11T13:53:08.553Z,94.80
2023-05-11T13:55:38.244Z,94.90
2023-05-11T13:58:06.153Z,94.80
2023-05-11T14:00:34.902Z,94.70
2023-05-11T14:03:02.731Z,94.60
2023-05-11T14:05:30.204Z,94.50
2023-05-11T14:07:57.602Z,94.40
2023-05-11T14:10:25.043Z,94.60
2023-05-11T14:12:52.432Z,94.40
2023-05-11T14:15:20.857Z,94.50
2023-05-11T14:17:48.808Z,94.60
2023-05-11T14:20:16.383Z,94.40
2023-05-11T14:22:43.833Z,94.30
2023-05-11T14:25:11.249Z,94.50
2023-05-11T14:27:38.719Z,94.50
2023-05-11T14:30:08.014Z,94.60
2023-05-11T14:32:35.476Z,94.70
2023-05-11T14:35:02.943Z,95.00
2023-05-11T14:37:30.529Z,95.00
2023-05-11T14:39:57.991Z,94.80
2023-05-11T14:42:25.289Z,94.70
2023-05-11T14:44:52.610Z,94.40
2023-05-11T14:47:19.967Z,94.30
2023-05-11T14:49:47.449Z,94.40
2023-05-11T14:52:14.798Z,94.20
2023-05-11T14:54:42.627Z,94.00
2023-05-11T14:57:10.032Z,93.70
2023-05-11T14:59:47.695Z,93.70
2023-05-11T15:02:19.016Z,93.60
2023-05-11T15:04:46.345Z,93.80
2023-05-11T15:07:13.700Z,93.80
2023-05-11T15:09:41.494Z,93.80
2023-05-11T15:12:08.943Z,93.60
2023-05-11T15:14:36.234Z,93.90
2023-05-11T15:17:03.728Z,93.80
2023-05-11T15:19:31.195Z,93.90
2023-05-11T15:21:58.697Z,94.00
2023-05-11T15:24:26.004Z,94.10
2023-05-11T15:26:53.734Z,94.10
2023-05-11T15:29:22.282Z,94.00
2023-05-11T15:31:49.713Z,94.10
2023-05-11T15:34:17.327Z,94.30
2023-05-11T15:36:46.161Z,94.20
2023-05-11T15:39:13.569Z,94.10
2023-05-11T15:41:41.017Z,94.10
2023-05-11T15:44:08.370Z,94.10
2023-05-11T15:46:36.135Z,94.30
2023-05-11T15:49:03.567Z,94.30
2023-05-11T15:51:30.899Z,94.20
2023-05-11T15:53:58.483Z,94.40
2023-05-11T15:56:26.446Z,94.40
2023-05-11T15:58:56.907Z,94.30
2023-05-11T16:01:24.327Z,94.70
2023-05-11T16:03:51.810Z,94.10
2023-05-11T16:06:19.461Z,94.30
2023-05-11T16:08:46.833Z,94.30
2023-05-11T16:11:14.167Z,94.40
2023-05-11T16:13:41.557Z,94.40
2023-05-11T16:16:08.971Z,94.40
2023-05-11T16:18:39.445Z,94.40
2023-05-11T16:21:08.399Z,94.40
2023-05-11T16:23:36.774Z,94.40
2023-05-11T16:26:05.909Z,94.40
2023-05-11T16:28:33.876Z,94.30
2023-05-11T16:31:01.448Z,94.40
2023-05-11T16:33:30.804Z,94.40
2023-05-11T16:35:58.821Z,94.20
2023-05-11T16:38:26.171Z,94.20
2023-05-11T16:40:55.529Z,94.00
2023-05-11T16:43:22.988Z,94.00
2023-05-11T16:45:53.919Z,94.00
2023-05-11T16:48:23.795Z,94.60
2023-05-11T16:50:52.295Z,93.90
2023-05-11T16:53:22.241Z,94.20
2023-05-11T16:55:50.340Z,94.00
2023-05-11T16:58:21.189Z,93.90
2023-05-11T17:00:49.089Z,94.20
2023-05-11T17:03:17.774Z,93.80
2023-05-11T17:05:45.780Z,93.80
2023-05-11T17:08:13.265Z,94.00
2023-05-11T17:10:41.027Z,94.00
2023-05-11T17:13:08.453Z,94.10
2023-05-11T17:15:35.837Z,94.10
2023-05-11T17:18:04.334Z,94.20
2023-05-11T17:20:32.466Z,94.30
2023-05-11T17:23:00.131Z,94.20
2023-05-11T17:25:29.374Z,94.50
2023-05-11T17:27:56.769Z,94.40
2023-05-11T17:30:39.928Z,94.30
2023-05-11T17:33:14.229Z,94.20
2023-05-11T17:35:42.008Z,95.00
2023-05-11T17:38:13.259Z,94.60
2023-05-11T17:40:43.325Z,94.60
2023-05-11T17:43:12.947Z,94.80
2023-05-11T17:45:40.330Z,94.60
2023-05-11T17:48:07.973Z,94.60
2023-05-11T17:50:36.724Z,94.70
2023-05-11T17:53:04.335Z,94.80
2023-05-11T17:55:31.860Z,94.60
2023-05-11T17:57:59.367Z,94.70
2023-05-11T18:00:27.991Z,94.70
2023-05-11T18:02:55.639Z,94.60
2023-05-11T18:05:28.169Z,94.70
2023-05-11T18:08:02.873Z,94.80
2023-05-11T18:10:30.236Z,94.70
2023-05-11T18:12:57.644Z,94.70
2023-05-11T18:15:24.967Z,94.70
2023-05-11T18:17:54.146Z,94.70
2023-05-11T18:20:21.614Z,94.90
2023-05-11T18:22:49.358Z,95.00
2023-05-11T18:25:16.780Z,94.90
2023-05-11T18:27:44.168Z,94.90
2023-05-11T18:30:12.059Z,95.00
2023-05-11T18:32:39.513Z,94.90
2023-05-11T18:35:07.348Z,94.90
2023-05-11T18:37:36.256Z,94.90
2023-05-11T18:40:06.404Z,94.90
2023-05-11T18:42:33.854Z,95.00
2023-05-11T18:45:01.325Z,95.10
2023-05-11T18:47:28.714Z,95.20
2023-05-11T18:49:57.356Z,95.20
2023-05-11T18:52:26.182Z,95.20
2023-05-11T18:54:56.694Z,95.50
2023-05-11T18:57:24.277Z,95.40
2023-05-11T18:59:52.432Z,95.40
2023-05-11T19:02:19.971Z,95.30
2023-05-11T19:04:47.491Z,95.40
2023-05-11T19:07:16.560Z,95.30
2023-05-11T19:09:44.042Z,95.50
2023-05-11T19:12:11.629Z,95.30
2023-05-11T19:14:39.082Z,95.20
2023-05-11T19:17:08.058Z,95.30
2023-05-11T19:19:35.506Z,95.30
2023-05-11T19:22:05.414Z,95.50
2023-05-11T19:24:35.698Z,95.50
2023-05-11T19:27:07.791Z,95.20
2023-05-11T19:29:36.936Z,95.40
2023-05-11T19:32:04.658Z,95.30
2023-05-11T19:34:32.062Z,95.40
2023-05-11T19:36:59.537Z,95.50
2023-05-11T19:39:26.982Z,95.60
2023-05-11T19:41:54.512Z,95.60
2023-05-11T19:44:21.879Z,95.80
2023-05-11T19:46:49.655Z,95.70
2023-05-11T19:49:19.233Z,96.00
2023-05-11T19:51:47.145Z,95.80
2023-05-11T19:54:15.472Z,95.70
2023-05-11T19:56:42.865Z,96.00
2023-05-11T19:59:10.184Z,96.00
2023-05-11T20:01:37.827Z,95.70
2023-05-11T20:04:06.789Z,96.00
2023-05-11T20:06:34.522Z,95.70
2023-05-11T20:09:01.945Z,95.80
2023-05-11T20:11:31.204Z,95.80
2023-05-11T20:14:03.067Z,95.70
2023-05-11T20:16:30.760Z,95.90
2023-05-11T20:18:59.581Z,96.00
2023-05-11T20:21:28.970Z,96.10
2023-05-11T20:23:56.671Z,96.10
2023-05-11T20:26:27.299Z,95.90
2023-05-11T20:28:54.924Z,96.00
2023-05-11T20:31:22.400Z,96.20
2023-05-11T20:36:20.096Z,96.40
2023-05-11T20:38:48.299Z,96.40
2023-05-11T20:41:16.769Z,96.20
2023-05-11T20:43:44.104Z,96.40
2023-05-11T20:46:11.636Z,96.40
2023-05-11T20:48:41.285Z,96.40
2023-05-11T20:51:09.698Z,96.30
2023-05-11T20:53:37.333Z,96.40
2023-05-11T20:56:04.833Z,96.70
2023-05-11T20:58:32.217Z,96.30
2023-05-11T21:00:59.778Z,96.40
2023-05-11T21:03:27.756Z,96.40
2023-05-11T21:05:56.266Z,96.40
2023-05-11T21:08:23.783Z,96.40
2023-05-11T21:10:51.279Z,96.40
2023-05-11T21:13:19.192Z,96.40
2023-05-11T21:15:46.552Z,96.50
2023-05-11T21:18:14.039Z,96.50
2023-05-11T21:20:41.877Z,96.50
2023-05-11T21:23:09.282Z,96.40
2023-05-11T21:25:36.629Z,96.50
2023-05-11T21:28:04.894Z,96.50
2023-05-11T21:30:34.890Z,96.50
2023-05-11T21:33:03.560Z,96.60
2023-05-11T21:35:31.038Z,96.70
2023-05-11T21:37:58.358Z,96.60
2023-05-11T21:40:25.831Z,96.70
2023-05-11T21:42:53.222Z,96.70
2023-05-11T21:45:20.757Z,96.70
2023-05-11T21:47:48.174Z,96.80
2023-05-11T21:50:16.191Z,96.90
2023-05-11T21:52:43.709Z,96.90
2023-05-11T21:55:11.142Z,97.00
2023-05-11T21:57:38.480Z,97.00
2023-05-11T22:00:08.836Z,96.90
2023-05-11T22:02:37.500Z,97.00
2023-05-11T22:05:05.998Z,96.90
2023-05-11T22:07:33.324Z,96.90
2023-05-11T22:10:00.667Z,97.20
2023-05-11T22:12:28.061Z,97.10
2023-05-11T22:14:55.622Z,97.10
2023-05-11T22:17:23.377Z,97.10
2023-05-11T22:19:50.855Z,97.20
2023-05-11T22:22:18.358Z,97.20
2023-05-11T22:24:45.693Z,97.10
2023-05-11T22:27:15.628Z,97.10
2023-05-11T22:29:43.238Z,97.10
2023-05-11T22:32:11.958Z,97.10
2023-05-11T22:34:39.409Z,97.20
2023-05-11T22:37:06.779Z,97.40
2023-05-11T22:39:34.133Z,97.10
2023-05-11T22:42:01.496Z,97.10
2023-05-11T22:44:28.870Z,97.00
2023-05-11T22:46:59.126Z,97.10
2023-05-11T22:49:26.980Z,97.40
2023-05-11T22:51:58.564Z,97.10
2023-05-11T22:54:28.870Z,97.00
2023-05-11T22:56:57.327Z,97.40
2023-05-11T22:59:24.742Z,97.00
2023-05-11T23:01:52.068Z,97.10
2023-05-11T23:04:19.368Z,97.00
2023-05-11T23:06:47.719Z,97.10
2023-05-11T23:09:15.952Z,96.90
2023-05-11T23:11:43.311Z,97.00
2023-05-11T23:14:13.591Z,97.00
2023-05-11T23:16:40.990Z,96.90
2023-05-11T23:19:08.347Z,97.10
2023-05-11T23:21:35.758Z,96.90
2023-05-11T23:24:03.559Z,96.90
2023-05-11T23:26:30.939Z,97.00
2023-05-11T23:28:58.314Z,97.00
2023-05-11T23:31:27.723Z,97.00
2023-05-11T23:33:55.360Z,96.90
2023-05-11T23:36:23.737Z,97.30
2023-05-11T23:38:51.054Z,96.90
2023-05-11T23:41:18.439Z,97.00
2023-05-11T23:43:45.898Z,96.90
2023-05-11T23:46:13.261Z,96.90
2023-05-11T23:48:40.614Z,97.00
2023-05-11T23:51:08.098Z,96.90
2023-05-11T23:53:35.546Z,97.00
2023-05-11T23:56:02.969Z,97.00
2023-05-11T23:58:30.284Z,96.90
